createdAt,value
2022-07-25T00:00:03.749Z,1003.5
2022-07-25T00:01:05.612Z,1003.5
2022-07-25T00:02:07.655Z,1003.6
2022-07-25T00:03:10.254Z,1003.5
2022-07-25T00:04:12.118Z,1003.5
2022-07-25T00:05:13.677Z,1003.5
2022-07-25T00:06:17.604Z,1003.5
2022-07-25T00:07:17.604Z,1003.5
2022-07-25T00:08:19.605Z,1003.6
2022-07-25T00:09:21.620Z,1003.6
2022-07-25T00:10:23.645Z,1003.5
2022-07-25T00:11:25.628Z,1003.5
2022-07-25T00:12:27.660Z,1003.6
2022-07-25T00:13:29.634Z,1003.6
2022-07-25T00:14:31.625Z,1003.5
2022-07-25T00:15:33.781Z,1003.5
2022-07-25T00:16:35.756Z,1003.5
2022-07-25T00:17:37.637Z,1003.5
2022-07-25T00:18:39.639Z,1003.5
2022-07-25T00:19:41.635Z,1003.6
2022-07-25T00:20:43.642Z,1003.6
2022-07-25T00:21:45.722Z,1003.5
2022-07-25T00:22:47.656Z,1003.6
2022-07-25T00:23:49.634Z,1003.6
2022-07-25T00:24:51.639Z,1003.5
2022-07-25T00:25:53.631Z,1003.5
2022-07-25T00:26:55.680Z,1003.6
2022-07-25T00:27:57.634Z,1003.6
2022-07-25T00:28:59.655Z,1003.5
2022-07-25T00:30:01.721Z,1003.5
2022-07-25T00:31:03.782Z,1003.5
2022-07-25T00:32:05.671Z,1003.5
2022-07-25T00:33:07.672Z,1003.5
2022-07-25T00:34:10.169Z,1003.5
2022-07-25T00:35:11.657Z,1003.5
2022-07-25T00:36:13.705Z,1003.4
2022-07-25T00:37:15.693Z,1003.4
2022-07-25T00:38:17.670Z,1003.4
2022-07-25T00:39:19.675Z,1003.4
2022-07-25T00:40:21.677Z,1003.4
2022-07-25T00:41:23.690Z,1003.4
2022-07-25T00:42:25.674Z,1003.5
2022-07-25T00:43:27.664Z,1003.4
2022-07-25T00:44:29.665Z,1003.4
2022-07-25T00:45:31.697Z,1003.4
2022-07-25T00:46:33.743Z,1003.4
2022-07-25T00:47:35.672Z,1003.3
2022-07-25T00:48:37.740Z,1003.4
2022-07-25T00:49:39.668Z,1003.4
2022-07-25T00:50:41.712Z,1003.4
2022-07-25T00:51:43.742Z,1003.4
2022-07-25T00:52:45.725Z,1003.4
2022-07-25T00:53:47.681Z,1003.4
2022-07-25T00:54:49.715Z,1003.3
2022-07-25T00:55:51.682Z,1003.3
2022-07-25T00:56:53.734Z,1003.3
2022-07-25T00:57:55.716Z,1003.3
2022-07-25T00:58:57.721Z,1003.3
2022-07-25T00:59:59.701Z,1003.3
2022-07-25T01:01:01.795Z,1003.3
2022-07-25T01:02:04.256Z,1003.3
2022-07-25T01:03:05.828Z,1003.3
2022-07-25T01:04:08.165Z,1003.3
2022-07-25T01:05:10.189Z,1003.3
2022-07-25T01:06:11.740Z,1003.3
2022-07-25T01:07:13.779Z,1003.3
2022-07-25T01:08:15.701Z,1003.3
2022-07-25T01:09:17.712Z,1003.3
2022-07-25T01:10:19.717Z,1003.3
2022-07-25T01:11:21.721Z,1003.2
2022-07-25T01:12:23.749Z,1003.2
2022-07-25T01:13:25.714Z,1003.3
2022-07-25T01:14:27.717Z,1003.3
2022-07-25T01:15:29.775Z,1003.3
2022-07-25T01:16:31.721Z,1003.3
2022-07-25T01:17:33.740Z,1003.2
2022-07-25T01:18:35.726Z,1003.2
2022-07-25T01:19:37.750Z,1003.2
2022-07-25T01:20:39.713Z,1003.2
2022-07-25T01:21:41.725Z,1003.2
2022-07-25T01:22:43.722Z,1003.2
2022-07-25T01:23:45.721Z,1003.2
2022-07-25T01:24:47.727Z,1003.2
2022-07-25T01:25:49.734Z,1003.2
2022-07-25T01:26:51.779Z,1003.1
2022-07-25T01:27:55.643Z,1003.1
2022-07-25T01:28:55.747Z,1003.1
2022-07-25T01:29:57.738Z,1003.1
2022-07-25T01:30:59.799Z,1003.1
2022-07-25T01:32:01.835Z,1003.1
2022-07-25T01:33:06.491Z,1003.1
2022-07-25T01:34:06.027Z,1003.1
2022-07-25T01:35:07.752Z,1003.1
2022-07-25T01:36:09.765Z,1003.1
2022-07-25T01:37:11.826Z,1003.1
2022-07-25T01:38:13.753Z,1003.1
2022-07-25T01:39:15.752Z,1003.1
2022-07-25T01:40:17.757Z,1003.1
2022-07-25T01:41:22.109Z,1003.1
2022-07-25T01:42:21.787Z,1003
2022-07-25T01:43:23.769Z,1003
2022-07-25T01:44:25.782Z,1003
2022-07-25T01:45:27.754Z,1003
2022-07-25T01:46:29.893Z,1002.9
2022-07-25T01:47:31.943Z,1002.9
2022-07-25T01:48:33.807Z,1002.9
2022-07-25T01:49:35.790Z,1002.9
2022-07-25T01:50:37.788Z,1002.9
2022-07-25T01:51:39.777Z,1002.9
2022-07-25T01:52:41.845Z,1002.9
2022-07-25T01:53:44.595Z,1002.8
2022-07-25T01:54:45.780Z,1002.9
2022-07-25T01:55:47.820Z,1002.9
2022-07-25T01:56:49.785Z,1002.8
2022-07-25T01:57:52.262Z,1002.8
2022-07-25T01:58:53.807Z,1002.8
2022-07-25T01:59:55.795Z,1002.8
2022-07-25T02:00:57.807Z,1002.8
2022-07-25T02:01:59.862Z,1002.8
2022-07-25T02:03:01.825Z,1002.8
2022-07-25T02:04:04.129Z,1002.8
2022-07-25T02:05:05.862Z,1002.8
2022-07-25T02:06:07.797Z,1002.8
2022-07-25T02:07:09.789Z,1002.8
2022-07-25T02:08:11.840Z,1002.7
2022-07-25T02:09:13.807Z,1002.8
2022-07-25T02:10:15.815Z,1002.8
2022-07-25T02:11:17.821Z,1002.8
2022-07-25T02:12:19.844Z,1002.8
2022-07-25T02:13:21.812Z,1002.8
2022-07-25T02:14:23.822Z,1002.8
2022-07-25T02:15:25.814Z,1002.8
2022-07-25T02:16:28.965Z,1002.7
2022-07-25T02:17:29.949Z,1002.7
2022-07-25T02:18:31.818Z,1002.7
2022-07-25T02:19:33.825Z,1002.8
2022-07-25T02:20:35.867Z,1002.8
2022-07-25T02:21:37.967Z,1002.8
2022-07-25T02:22:39.864Z,1002.7
2022-07-25T02:23:41.819Z,1002.7
2022-07-25T02:24:43.833Z,1002.7
2022-07-25T02:25:45.844Z,1002.7
2022-07-25T02:26:47.937Z,1002.8
2022-07-25T02:27:49.835Z,1002.7
2022-07-25T02:28:51.833Z,1002.7
2022-07-25T02:29:53.837Z,1002.7
2022-07-25T02:30:55.918Z,1002.7
2022-07-25T02:31:57.875Z,1002.7
2022-07-25T02:32:59.872Z,1002.7
2022-07-25T02:34:02.183Z,1002.7
2022-07-25T02:35:03.993Z,1002.7
2022-07-25T02:36:05.874Z,1002.7
2022-07-25T02:37:07.862Z,1002.7
2022-07-25T02:38:09.956Z,1002.7
2022-07-25T02:39:11.853Z,1002.7
2022-07-25T02:40:13.866Z,1002.7
2022-07-25T02:41:15.886Z,1002.8
2022-07-25T02:42:17.865Z,1002.7
2022-07-25T02:43:19.925Z,1002.7
2022-07-25T02:44:24.103Z,1002.7
2022-07-25T02:45:25.888Z,1002.7
2022-07-25T02:46:28.376Z,1002.7
2022-07-25T02:47:29.866Z,1002.7
2022-07-25T02:48:34.347Z,1002.7
2022-07-25T02:49:35.900Z,1002.7
2022-07-25T02:50:37.874Z,1002.7
2022-07-25T02:51:39.874Z,1002.7
2022-07-25T02:52:49.702Z,1002.7
2022-07-25T02:53:58.957Z,1002.7
2022-07-25T02:54:52.876Z,1002.7
2022-07-25T02:55:54.868Z,1002.7
2022-07-25T02:56:56.868Z,1002.7
2022-07-25T02:57:58.871Z,1002.7
2022-07-25T02:59:00.930Z,1002.7
2022-07-25T03:00:03.030Z,1002.7
2022-07-25T03:01:05.065Z,1002.7
2022-07-25T03:02:06.881Z,1002.7
2022-07-25T03:03:08.943Z,1002.7
2022-07-25T03:04:11.283Z,1002.7
2022-07-25T03:05:12.900Z,1002.7
2022-07-25T03:06:14.888Z,1002.7
2022-07-25T03:07:16.896Z,1002.6
2022-07-25T03:08:18.917Z,1002.6
2022-07-25T03:09:20.911Z,1002.6
2022-07-25T03:10:22.896Z,1002.6
2022-07-25T03:11:24.913Z,1002.6
2022-07-25T03:12:26.943Z,1002.6
2022-07-25T03:13:28.930Z,1002.6
2022-07-25T03:14:30.907Z,1002.6
2022-07-25T03:15:32.897Z,1002.6
2022-07-25T03:16:34.972Z,1002.6
2022-07-25T03:17:36.920Z,1002.6
2022-07-25T03:18:38.961Z,1002.6
2022-07-25T03:19:40.929Z,1002.6
2022-07-25T03:20:42.907Z,1002.6
2022-07-25T03:21:44.913Z,1002.6
2022-07-25T03:22:46.928Z,1002.6
2022-07-25T03:23:52.370Z,1002.6
2022-07-25T03:24:50.927Z,1002.6
2022-07-25T03:25:52.953Z,1002.6
2022-07-25T03:26:54.927Z,1002.5
2022-07-25T03:27:56.956Z,1002.5
2022-07-25T03:28:58.927Z,1002.6
2022-07-25T03:30:00.919Z,1002.5
2022-07-25T03:31:03.024Z,1002.5
2022-07-25T03:32:04.976Z,1002.5
2022-07-25T03:33:06.968Z,1002.5
2022-07-25T03:34:09.179Z,1002.5
2022-07-25T03:35:10.942Z,1002.5
2022-07-25T03:36:12.981Z,1002.5
2022-07-25T03:37:14.956Z,1002.5
2022-07-25T03:38:16.968Z,1002.5
2022-07-25T03:39:19.000Z,1002.5
2022-07-25T03:40:20.958Z,1002.6
2022-07-25T03:41:22.940Z,1002.6
2022-07-25T03:42:26.692Z,1002.6
2022-07-25T03:43:26.948Z,1002.6
2022-07-25T03:44:29.001Z,1002.5
2022-07-25T03:45:31.015Z,1002.5
2022-07-25T03:46:32.957Z,1002.5
2022-07-25T03:47:34.959Z,1002.5
2022-07-25T03:48:39.579Z,1002.5
2022-07-25T03:49:41.013Z,1002.5
2022-07-25T03:50:42.977Z,1002.4
2022-07-25T03:51:44.970Z,1002.4
2022-07-25T03:52:46.985Z,1002.4
2022-07-25T03:53:48.982Z,1002.4
2022-07-25T03:54:51.017Z,1002.4
2022-07-25T03:55:52.979Z,1002.4
2022-07-25T03:56:54.961Z,1002.4
2022-07-25T03:57:56.988Z,1002.4
2022-07-25T03:58:58.980Z,1002.4
2022-07-25T04:00:01.002Z,1002.4
2022-07-25T04:01:03.050Z,1002.4
2022-07-25T04:02:05.025Z,1002.4
2022-07-25T04:03:07.000Z,1002.3
2022-07-25T04:04:09.302Z,1002.3
2022-07-25T04:05:10.987Z,1002.3
2022-07-25T04:06:12.982Z,1002.3
2022-07-25T04:07:15.051Z,1002.4
2022-07-25T04:08:17.013Z,1002.3
2022-07-25T04:09:19.021Z,1002.3
2022-07-25T04:10:21.205Z,1002.3
2022-07-25T04:11:22.997Z,1002.3
2022-07-25T04:12:25.058Z,1002.3
2022-07-25T04:13:26.986Z,1002.3
2022-07-25T04:14:28.986Z,1002.3
2022-07-25T04:15:31.057Z,1002.3
2022-07-25T04:16:33.066Z,1002.3
2022-07-25T04:17:35.037Z,1002.3
2022-07-25T04:18:37.030Z,1002.3
2022-07-25T04:19:39.051Z,1002.3
2022-07-25T04:20:41.028Z,1002.3
2022-07-25T04:21:43.004Z,1002.3
2022-07-25T04:22:47.054Z,1002.3
2022-07-25T04:23:47.002Z,1002.2
2022-07-25T04:24:49.098Z,1002.2
2022-07-25T04:25:51.018Z,1002.2
2022-07-25T04:26:53.016Z,1002.2
2022-07-25T04:27:55.008Z,1002.1
2022-07-25T04:28:57.030Z,1002.1
2022-07-25T04:29:59.093Z,1002.2
2022-07-25T04:31:01.014Z,1002.2
2022-07-25T04:32:03.146Z,1002.2
2022-07-25T04:33:08.165Z,1002.2
2022-07-25T04:34:10.239Z,1002.1
2022-07-25T04:35:12.068Z,1002.1
2022-07-25T04:36:14.044Z,1002.1
2022-07-25T04:37:16.034Z,1002.1
2022-07-25T04:38:18.054Z,1002.1
2022-07-25T04:39:20.133Z,1002.1
2022-07-25T04:40:22.038Z,1002.1
2022-07-25T04:41:24.044Z,1002.1
2022-07-25T04:42:26.052Z,1002.1
2022-07-25T04:43:28.059Z,1002
2022-07-25T04:44:30.113Z,1002
2022-07-25T04:45:32.120Z,1002
2022-07-25T04:46:34.046Z,1002
2022-07-25T04:47:36.045Z,1002
2022-07-25T04:48:38.112Z,1002
2022-07-25T04:49:40.085Z,1002
2022-07-25T04:50:42.069Z,1002
2022-07-25T04:51:44.047Z,1002
2022-07-25T04:52:46.066Z,1002
2022-07-25T04:53:48.075Z,1002
2022-07-25T04:54:50.117Z,1002
2022-07-25T04:55:52.066Z,1002
2022-07-25T04:56:54.080Z,1002
2022-07-25T04:57:56.076Z,1002
2022-07-25T04:59:01.829Z,1002
2022-07-25T05:00:00.149Z,1002
2022-07-25T05:01:02.231Z,1002
2022-07-25T05:02:04.162Z,1002
2022-07-25T05:03:06.125Z,1002
2022-07-25T05:04:08.410Z,1002
2022-07-25T05:05:18.356Z,1002
2022-07-25T05:06:12.095Z,1002
2022-07-25T05:07:14.087Z,1002
2022-07-25T05:08:16.089Z,1002
2022-07-25T05:09:18.094Z,1002
2022-07-25T05:10:20.154Z,1002
2022-07-25T05:11:22.135Z,1002
2022-07-25T05:12:24.149Z,1001.9
2022-07-25T05:13:26.178Z,1002
2022-07-25T05:14:28.332Z,1001.9
2022-07-25T05:15:30.140Z,1001.9
2022-07-25T05:16:32.229Z,1001.9
2022-07-25T05:17:34.147Z,1001.9
2022-07-25T05:18:36.109Z,1001.9
2022-07-25T05:19:38.102Z,1001.9
2022-07-25T05:20:40.150Z,1001.9
2022-07-25T05:21:42.111Z,1001.9
2022-07-25T05:22:44.114Z,1001.9
2022-07-25T05:23:46.145Z,1001.9
2022-07-25T05:24:48.104Z,1001.9
2022-07-25T05:25:50.151Z,1001.8
2022-07-25T05:26:52.220Z,1001.8
2022-07-25T05:27:54.119Z,1001.8
2022-07-25T05:28:56.118Z,1001.8
2022-07-25T05:29:58.276Z,1001.7
2022-07-25T05:31:00.124Z,1001.7
2022-07-25T05:32:03.186Z,1001.7
2022-07-25T05:33:05.134Z,1001.7
2022-07-25T05:34:07.476Z,1001.7
2022-07-25T05:35:09.164Z,1001.7
2022-07-25T05:36:11.174Z,1001.7
2022-07-25T05:37:13.153Z,1001.7
2022-07-25T05:38:15.144Z,1001.7
2022-07-25T05:39:17.191Z,1001.7
2022-07-25T05:40:19.165Z,1001.6
2022-07-25T05:41:21.214Z,1001.6
2022-07-25T05:42:23.164Z,1001.6
2022-07-25T05:43:25.150Z,1001.6
2022-07-25T05:44:27.166Z,1001.6
2022-07-25T05:45:29.144Z,1001.6
2022-07-25T05:46:31.284Z,1001.6
2022-07-25T05:47:33.169Z,1001.6
2022-07-25T05:48:35.227Z,1001.6
2022-07-25T05:49:37.207Z,1001.6
2022-07-25T05:50:39.189Z,1001.6
2022-07-25T05:51:41.145Z,1001.6
2022-07-25T05:52:43.154Z,1001.6
2022-07-25T05:53:45.213Z,1001.6
2022-07-25T05:54:47.198Z,1001.6
2022-07-25T05:55:49.820Z,1001.6
2022-07-25T05:56:51.180Z,1001.6
2022-07-25T05:57:53.167Z,1001.6
2022-07-25T05:58:55.225Z,1001.6
2022-07-25T05:59:58.294Z,1001.6
2022-07-25T06:01:00.198Z,1001.6
2022-07-25T06:02:02.368Z,1001.6
2022-07-25T06:03:04.437Z,1001.6
2022-07-25T06:04:06.566Z,1001.6
2022-07-25T06:05:08.225Z,1001.6
2022-07-25T06:06:10.176Z,1001.7
2022-07-25T06:07:12.176Z,1001.6
2022-07-25T06:08:14.189Z,1001.6
2022-07-25T06:09:16.201Z,1001.6
2022-07-25T06:10:18.231Z,1001.6
2022-07-25T06:11:20.181Z,1001.6
2022-07-25T06:12:22.581Z,1001.6
2022-07-25T06:13:24.189Z,1001.6
2022-07-25T06:14:26.177Z,1001.6
2022-07-25T06:15:28.240Z,1001.6
2022-07-25T06:16:30.217Z,1001.6
2022-07-25T06:17:32.770Z,1001.7
2022-07-25T06:18:34.227Z,1001.6
2022-07-25T06:19:36.206Z,1001.6
2022-07-25T06:20:38.252Z,1001.6
2022-07-25T06:21:40.196Z,1001.6
2022-07-25T06:22:42.344Z,1001.6
2022-07-25T06:23:44.207Z,1001.6
2022-07-25T06:24:46.254Z,1001.6
2022-07-25T06:25:50.063Z,1001.6
2022-07-25T06:26:50.299Z,1001.6
2022-07-25T06:27:52.267Z,1001.5
2022-07-25T06:28:54.216Z,1001.5
2022-07-25T06:29:56.235Z,1001.5
2022-07-25T06:30:58.397Z,1001.5
2022-07-25T06:32:00.368Z,1001.5
2022-07-25T06:33:02.287Z,1001.5
2022-07-25T06:34:04.601Z,1001.4
2022-07-25T06:35:06.271Z,1001.4
2022-07-25T06:36:08.235Z,1001.4
2022-07-25T06:37:10.287Z,1001.4
2022-07-25T06:38:12.353Z,1001.4
2022-07-25T06:39:14.245Z,1001.4
2022-07-25T06:40:16.239Z,1001.4
2022-07-25T06:41:18.235Z,1001.4
2022-07-25T06:42:20.297Z,1001.3
2022-07-25T06:43:22.264Z,1001.4
2022-07-25T06:44:24.351Z,1001.4
2022-07-25T06:45:26.269Z,1001.3
2022-07-25T06:46:28.321Z,1001.3
2022-07-25T06:47:34.170Z,1001.3
2022-07-25T06:48:33.175Z,1001.3
2022-07-25T06:49:35.296Z,1001.3
2022-07-25T06:50:37.252Z,1001.2
2022-07-25T06:51:39.297Z,1001.2
2022-07-25T06:52:41.450Z,1001.1
2022-07-25T06:53:43.246Z,1001
2022-07-25T06:54:45.264Z,1001
2022-07-25T06:55:47.274Z,1000.9
2022-07-25T06:56:49.331Z,1000.9
2022-07-25T06:57:51.276Z,1000.7
2022-07-25T06:58:53.273Z,1000.7
2022-07-25T06:59:55.260Z,1000.6
2022-07-25T07:00:57.316Z,1000.5
2022-07-25T07:01:59.402Z,1000.4
2022-07-25T07:03:01.546Z,1000.4
2022-07-25T07:04:03.496Z,1000.5
2022-07-25T07:05:05.349Z,1000.5
2022-07-25T07:06:07.275Z,1000.6
2022-07-25T07:07:10.165Z,1000.4
2022-07-25T07:08:11.342Z,1000.3
2022-07-25T07:09:13.281Z,1000.2
2022-07-25T07:10:15.293Z,1000.2
2022-07-25T07:11:17.342Z,1000.2
2022-07-25T07:12:19.338Z,1000.3
2022-07-25T07:13:24.218Z,1000.3
2022-07-25T07:14:23.360Z,1000.4
2022-07-25T07:15:25.344Z,1000.4
2022-07-25T07:16:27.357Z,1000.4
2022-07-25T07:17:29.298Z,1000.5
2022-07-25T07:18:31.330Z,1000.4
2022-07-25T07:19:33.333Z,1000.3
2022-07-25T07:20:35.349Z,1000.3
2022-07-25T07:21:37.302Z,1000.3
2022-07-25T07:22:39.342Z,1000.3
2022-07-25T07:23:41.345Z,1000.3
2022-07-25T07:24:44.357Z,1000.3
2022-07-25T07:25:45.363Z,1000.3
2022-07-25T07:26:48.388Z,1000.3
2022-07-25T07:27:50.353Z,1000.3
2022-07-25T07:28:52.430Z,1000.3
2022-07-25T07:29:54.348Z,1000.3
2022-07-25T07:31:15.503Z,1000.3
2022-07-25T07:31:58.384Z,1000.3
2022-07-25T07:33:00.357Z,1000.3
2022-07-25T07:34:02.417Z,1000.4
2022-07-25T07:35:04.399Z,1000.5
2022-07-25T07:36:06.332Z,1000.5
2022-07-25T07:37:08.330Z,1000.3
2022-07-25T07:38:10.607Z,1000.3
2022-07-25T07:39:12.412Z,1000.2
2022-07-25T07:40:16.977Z,1000.2
2022-07-25T07:41:16.354Z,1000.1
2022-07-25T07:42:18.361Z,1000.1
2022-07-25T07:43:20.419Z,1000.1
2022-07-25T07:44:22.397Z,1000
2022-07-25T07:45:24.367Z,1000
2022-07-25T07:46:26.593Z,1000
2022-07-25T07:47:28.708Z,1000
2022-07-25T07:48:30.479Z,1000
2022-07-25T07:49:32.372Z,1000
2022-07-25T07:50:34.393Z,1000
2022-07-25T07:51:36.351Z,1000
2022-07-25T07:52:37.743Z,1000
2022-07-25T07:53:39.492Z,1000
2022-07-25T07:54:41.403Z,1000.1
2022-07-25T07:55:43.362Z,1000.1
2022-07-25T07:56:45.365Z,1000.1
2022-07-25T07:57:47.454Z,1000.2
2022-07-25T07:58:49.759Z,1000.2
2022-07-25T07:59:51.375Z,1000.1
2022-07-25T08:00:53.383Z,1000.1
2022-07-25T08:01:56.372Z,1000.2
2022-07-25T08:02:57.492Z,1000.2
2022-07-25T08:03:59.413Z,1000.2
2022-07-25T08:05:01.382Z,1000.1
2022-07-25T08:06:03.417Z,1000.1
2022-07-25T08:07:05.457Z,1000.1
2022-07-25T08:08:07.473Z,1000.1
2022-07-25T08:09:09.675Z,1000.1
2022-07-25T08:10:11.477Z,1000.1
2022-07-25T08:11:13.412Z,1000.1
2022-07-25T08:12:15.409Z,1000.1
2022-07-25T08:13:17.416Z,1000.1
2022-07-25T08:14:19.575Z,1000.1
2022-07-25T08:15:21.441Z,1000
2022-07-25T08:16:23.005Z,1000
2022-07-25T08:17:28.409Z,1000
2022-07-25T08:18:25.451Z,1000
2022-07-25T08:19:27.421Z,1000
2022-07-25T08:20:37.782Z,1000
2022-07-25T08:21:31.478Z,1000
2022-07-25T08:22:33.453Z,999.9
2022-07-25T08:23:34.848Z,999.9
2022-07-25T08:24:35.818Z,999.9
2022-07-25T08:25:36.833Z,1000
2022-07-25T08:26:37.830Z,1000.1
2022-07-25T08:27:39.460Z,1000
2022-07-25T08:28:40.818Z,1000
2022-07-25T08:29:41.845Z,1000.1
2022-07-25T08:30:43.549Z,1000.1
2022-07-25T08:31:45.500Z,1000.1
2022-07-25T08:32:46.867Z,1000
2022-07-25T08:33:48.587Z,1000
2022-07-25T08:34:50.533Z,999.9
2022-07-25T08:35:52.635Z,999.9
2022-07-25T08:36:54.536Z,999.9
2022-07-25T08:37:55.844Z,999.9
2022-07-25T08:38:57.451Z,999.9
2022-07-25T08:39:59.515Z,999.9
2022-07-25T08:41:01.544Z,1000
2022-07-25T08:42:06.528Z,1000
2022-07-25T08:43:08.459Z,1000
2022-07-25T08:44:10.462Z,1000
2022-07-25T08:45:11.942Z,1000
2022-07-25T08:46:12.874Z,1000
2022-07-25T08:47:14.548Z,1000
2022-07-25T08:48:15.859Z,1000
2022-07-25T08:49:16.958Z,1000
2022-07-25T08:50:18.555Z,1000
2022-07-25T08:51:20.542Z,1000.1
2022-07-25T08:52:22.486Z,1000.1
2022-07-25T08:53:33.449Z,1000.1
2022-07-25T08:54:25.864Z,1000
2022-07-25T08:55:26.903Z,1000
2022-07-25T08:56:27.856Z,1000
2022-07-25T08:57:28.873Z,1000
2022-07-25T08:58:30.490Z,1000
2022-07-25T08:59:32.494Z,999.9
2022-07-25T09:00:33.895Z,999.9
2022-07-25T09:01:35.599Z,1000
2022-07-25T09:02:36.897Z,999.9
2022-07-25T09:03:37.885Z,999.9
2022-07-25T09:04:38.868Z,999.9
2022-07-25T09:05:40.538Z,999.9
2022-07-25T09:06:41.912Z,999.9
2022-07-25T09:07:42.882Z,999.9
2022-07-25T09:08:43.885Z,999.8
2022-07-25T09:09:44.912Z,999.8
2022-07-25T09:10:45.911Z,999.8
2022-07-25T09:11:46.920Z,999.8
2022-07-25T09:12:47.894Z,999.8
2022-07-25T09:13:49.643Z,999.9
2022-07-25T09:14:50.936Z,999.9
2022-07-25T09:15:51.982Z,999.9
2022-07-25T09:16:52.923Z,1000
2022-07-25T09:17:53.921Z,999.9
2022-07-25T09:18:54.912Z,999.9
2022-07-25T09:19:55.904Z,999.8
2022-07-25T09:20:56.875Z,999.9
2022-07-25T09:21:57.956Z,999.9
2022-07-25T09:22:58.923Z,999.9
2022-07-25T09:23:59.999Z,999.8
2022-07-25T09:25:00.909Z,999.8
2022-07-25T09:26:01.981Z,999.8
2022-07-25T09:27:02.960Z,999.8
2022-07-25T09:28:03.888Z,999.7
2022-07-25T09:29:04.909Z,999.7
2022-07-25T09:30:06.026Z,999.8
2022-07-25T09:31:06.997Z,999.8
2022-07-25T09:32:07.961Z,999.8
2022-07-25T09:33:08.948Z,999.8
2022-07-25T09:34:10.228Z,999.8
2022-07-25T09:35:10.939Z,999.8
2022-07-25T09:36:11.941Z,999.8
2022-07-25T09:37:12.966Z,999.8
2022-07-25T09:38:13.955Z,999.8
2022-07-25T09:39:14.936Z,999.7
2022-07-25T09:40:16.005Z,999.7
2022-07-25T09:41:16.960Z,999.7
2022-07-25T09:42:17.975Z,999.7
2022-07-25T09:43:18.973Z,999.7
2022-07-25T09:44:19.954Z,999.7
2022-07-25T09:45:21.028Z,999.7
2022-07-25T09:46:22.062Z,999.7
2022-07-25T09:47:22.977Z,999.8
2022-07-25T09:48:23.978Z,999.8
2022-07-25T09:49:24.976Z,999.8
2022-07-25T09:50:26.044Z,999.8
2022-07-25T09:51:26.967Z,999.7
2022-07-25T09:52:27.972Z,999.7
2022-07-25T09:53:28.991Z,999.7
2022-07-25T09:54:30.016Z,999.6
2022-07-25T09:55:31.029Z,999.6
2022-07-25T09:56:31.974Z,999.6
2022-07-25T09:57:32.965Z,999.6
2022-07-25T09:58:33.972Z,999.6
2022-07-25T09:59:35.027Z,999.6
2022-07-25T10:00:36.063Z,999.6
2022-07-25T10:01:37.086Z,999.6
2022-07-25T10:02:38.041Z,999.6
2022-07-25T10:03:39.033Z,999.6
2022-07-25T10:04:39.976Z,999.6
2022-07-25T10:05:41.024Z,999.6
2022-07-25T10:06:41.996Z,999.6
2022-07-25T10:07:42.962Z,999.6
2022-07-25T10:08:44.016Z,999.5
2022-07-25T10:09:45.045Z,999.5
2022-07-25T10:10:46.043Z,999.6
2022-07-25T10:11:47.040Z,999.6
2022-07-25T10:12:48.003Z,999.6
2022-07-25T10:13:49.023Z,999.6
2022-07-25T10:14:49.996Z,999.6
2022-07-25T10:15:51.007Z,999.6
2022-07-25T10:16:52.143Z,999.6
2022-07-25T10:17:53.016Z,999.6
2022-07-25T10:18:54.069Z,999.6
2022-07-25T10:19:58.640Z,999.5
2022-07-25T10:20:56.014Z,999.5
2022-07-25T10:21:57.016Z,999.5
2022-07-25T10:22:58.519Z,999.5
2022-07-25T10:23:59.027Z,999.5
2022-07-25T10:25:00.034Z,999.4
2022-07-25T10:26:01.126Z,999.4
2022-07-25T10:27:02.198Z,999.4
2022-07-25T10:28:03.153Z,999.4
2022-07-25T10:29:04.049Z,999.4
2022-07-25T10:30:05.297Z,999.4
2022-07-25T10:31:06.110Z,999.4
2022-07-25T10:32:07.104Z,999.4
2022-07-25T10:33:08.069Z,999.4
2022-07-25T10:34:09.439Z,999.4
2022-07-25T10:35:10.081Z,999.4
2022-07-25T10:36:11.046Z,999.4
2022-07-25T10:37:12.283Z,999.3
2022-07-25T10:38:13.126Z,999.3
2022-07-25T10:39:14.070Z,999.3
2022-07-25T10:40:15.060Z,999.3
2022-07-25T10:41:16.072Z,999.3
2022-07-25T10:42:17.103Z,999.3
2022-07-25T10:43:18.071Z,999.3
2022-07-25T10:44:19.165Z,999.2
2022-07-25T10:45:20.097Z,999.2
2022-07-25T10:46:21.191Z,999.2
2022-07-25T10:47:22.060Z,999.2
2022-07-25T10:48:23.059Z,999.2
2022-07-25T10:49:31.610Z,999.2
2022-07-25T10:50:46.352Z,999.2
2022-07-25T10:51:26.100Z,999.2
2022-07-25T10:52:27.172Z,999.1
2022-07-25T10:53:28.086Z,999.1
2022-07-25T10:54:29.083Z,999.2
2022-07-25T10:55:30.116Z,999.1
2022-07-25T10:56:31.108Z,999.2
2022-07-25T10:57:32.427Z,999.1
2022-07-25T10:58:33.094Z,999.1
2022-07-25T10:59:34.093Z,999.1
2022-07-25T11:00:35.109Z,999.1
2022-07-25T11:01:36.242Z,999.1
2022-07-25T11:02:37.186Z,999.1
2022-07-25T11:03:38.105Z,999
2022-07-25T11:04:39.129Z,999
2022-07-25T11:05:40.130Z,999.1
2022-07-25T11:06:41.116Z,999
2022-07-25T11:07:44.244Z,999
2022-07-25T11:08:43.110Z,999
2022-07-25T11:09:44.125Z,999
2022-07-25T11:10:45.101Z,999
2022-07-25T11:11:46.135Z,999
2022-07-25T11:12:47.183Z,999
2022-07-25T11:13:48.125Z,999
2022-07-25T11:14:49.156Z,999
2022-07-25T11:15:50.134Z,999
2022-07-25T11:16:51.213Z,999
2022-07-25T11:17:52.202Z,998.9
2022-07-25T11:18:53.137Z,998.9
2022-07-25T11:19:54.104Z,999
2022-07-25T11:20:55.366Z,998.9
2022-07-25T11:21:56.159Z,998.9
2022-07-25T11:22:57.418Z,998.9
2022-07-25T11:23:58.126Z,998.9
2022-07-25T11:24:59.223Z,998.9
2022-07-25T11:26:00.154Z,998.9
2022-07-25T11:27:01.153Z,998.9
2022-07-25T11:28:02.166Z,998.8
2022-07-25T11:29:03.251Z,998.7
2022-07-25T11:30:04.455Z,998.7
2022-07-25T11:31:05.207Z,998.8
2022-07-25T11:32:06.232Z,998.7
2022-07-25T11:33:07.531Z,998.7
2022-07-25T11:34:08.134Z,998.7
2022-07-25T11:35:09.219Z,998.7
2022-07-25T11:36:10.183Z,998.7
2022-07-25T11:37:11.167Z,998.7
2022-07-25T11:38:12.213Z,998.6
2022-07-25T11:39:16.894Z,998.6
2022-07-25T11:40:14.250Z,998.6
2022-07-25T11:41:15.292Z,998.6
2022-07-25T11:42:16.211Z,998.6
2022-07-25T11:43:17.200Z,998.5
2022-07-25T11:44:18.163Z,998.5
2022-07-25T11:45:19.303Z,998.5
2022-07-25T11:46:20.250Z,998.5
2022-07-25T11:47:21.192Z,998.5
2022-07-25T11:48:22.242Z,998.4
2022-07-25T11:49:23.230Z,998.4
2022-07-25T11:50:24.204Z,998.4
2022-07-25T11:51:25.244Z,998.4
2022-07-25T11:52:26.258Z,998.4
2022-07-25T11:53:27.336Z,998.4
2022-07-25T11:54:28.657Z,998.4
2022-07-25T11:55:29.200Z,998.3
2022-07-25T11:56:42.251Z,998.3
2022-07-25T11:57:31.254Z,998.3
2022-07-25T11:58:32.288Z,998.3
2022-07-25T11:59:33.238Z,998.3
2022-07-25T12:00:34.223Z,998.3
2022-07-25T12:01:35.265Z,998.4
2022-07-25T12:02:36.332Z,998.3
2022-07-25T12:03:37.460Z,998.3
2022-07-25T12:04:38.234Z,998.3
2022-07-25T12:05:39.238Z,998.3
2022-07-25T12:06:40.240Z,998.2
2022-07-25T12:07:41.248Z,998.3
2022-07-25T12:08:42.345Z,998.3
2022-07-25T12:09:43.243Z,998.3
2022-07-25T12:10:44.237Z,998.3
2022-07-25T12:11:45.260Z,998.2
2022-07-25T12:12:46.228Z,998.2
2022-07-25T12:13:47.230Z,998.2
2022-07-25T12:14:48.242Z,998.2
2022-07-25T12:15:50.008Z,998.2
2022-07-25T12:16:51.282Z,998.1
2022-07-25T12:17:52.277Z,998.1
2022-07-25T12:18:53.252Z,998.1
2022-07-25T12:19:54.289Z,998
2022-07-25T12:20:56.436Z,998
2022-07-25T12:21:57.344Z,998
2022-07-25T12:22:58.256Z,998
2022-07-25T12:23:59.336Z,998
2022-07-25T12:25:00.259Z,997.9
2022-07-25T12:26:01.320Z,997.9
2022-07-25T12:27:02.286Z,997.9
2022-07-25T12:28:03.310Z,997.9
2022-07-25T12:29:04.818Z,997.9
2022-07-25T12:30:05.321Z,997.8
2022-07-25T12:31:06.294Z,997.8
2022-07-25T12:32:07.337Z,997.8
2022-07-25T12:33:08.273Z,997.8
2022-07-25T12:34:09.321Z,997.8
2022-07-25T12:35:10.297Z,997.8
2022-07-25T12:36:11.315Z,997.7
2022-07-25T12:37:12.347Z,997.7
2022-07-25T12:38:13.276Z,997.7
2022-07-25T12:39:14.322Z,997.7
2022-07-25T12:40:15.388Z,997.7
2022-07-25T12:41:18.060Z,997.7
2022-07-25T12:42:17.280Z,997.6
2022-07-25T12:43:18.426Z,997.6
2022-07-25T12:44:19.429Z,997.6
2022-07-25T12:45:20.370Z,997.6
2022-07-25T12:46:21.431Z,997.6
2022-07-25T12:47:23.531Z,997.6
2022-07-25T12:48:24.334Z,997.6
2022-07-25T12:49:25.347Z,997.6
2022-07-25T12:50:26.352Z,997.6
2022-07-25T12:51:27.716Z,997.6
2022-07-25T12:52:28.358Z,997.6
2022-07-25T12:53:29.346Z,997.6
2022-07-25T12:54:30.309Z,997.6
2022-07-25T12:55:31.375Z,997.6
2022-07-25T12:56:32.437Z,997.6
2022-07-25T12:57:33.329Z,997.6
2022-07-25T12:58:34.307Z,997.5
2022-07-25T12:59:35.325Z,997.5
2022-07-25T13:00:36.346Z,997.5
2022-07-25T13:01:37.365Z,997.5
2022-07-25T13:02:38.363Z,997.5
2022-07-25T13:03:39.322Z,997.5